Time;durP1;ratioP1;P1;durP2;ratioP2;P2;SDS_P1;SDS_P2;PMS_P1;PMS_P2;Temp;Humidity;BMP_temperature;BMP_pressure;BME280_temperature;BME280_humidity;BME280_pressure;Samples;Min_cycle;Max_cycle;Signal;HPM_P1;HPM_P2
2021/05/01 00:02:42;;;;;;;34.97;31.57;;;;;;;;;;5050837;28;20201;-80
2021/05/01 00:05:27;;;;;;;34.97;31.53;;;;;;;;;;5050800;28;20267;-80
2021/05/01 00:08:11;;;;;;;35.93;32.23;;;;;;;;;;5050908;28;20642;-80
2021/05/01 00:10:56;;;;;;;40.67;36.78;;;;;;;;;;5049569;28;20413;-79
2021/05/01 00:13:41;;;;;;;33.73;30.13;;;;;;;;;;5050975;28;20336;-79
2021/05/01 00:16:27;;;;;;;31.70;28.33;;;;;;;;;;5050976;28;20259;-79
2021/05/01 00:19:12;;;;;;;28.50;25.53;;;;;;;;;;5051060;28;20264;-80
2021/05/01 00:21:56;;;;;;;28.13;25.40;;;;;;;;;;5050637;28;20319;-79
2021/05/01 00:24:41;;;;;;;28.30;25.27;;;;;;;;;;5050761;28;20739;-79
2021/05/01 00:27:25;;;;;;;30.30;26.83;;;;;;;;;;5050717;28;20232;-80
2021/05/01 00:30:10;;;;;;;27.37;24.67;;;;;;;;;;5049977;28;20699;-80
2021/05/01 00:32:56;;;;;;;29.50;25.43;;;;;;;;;;5050827;28;20204;-79
2021/05/01 00:35:42;;;;;;;28.63;25.67;;;;;;;;;;5050762;28;20200;-80
2021/05/01 00:38:27;;;;;;;28.87;26.00;;;;;;;;;;5050415;28;20467;-80
2021/05/01 00:41:11;;;;;;;26.97;24.10;;;;;;;;;;5049962;28;20240;-80
2021/05/01 00:43:56;;;;;;;24.97;22.43;;;;;;;;;;5050974;28;20254;-80
2021/05/01 00:46:40;;;;;;;24.80;22.13;;;;;;;;;;5050262;28;20240;-79
2021/05/01 00:49:26;;;;;;;24.47;21.87;;;;;;;;;;5050314;28;20228;-80
2021/05/01 00:52:10;;;;;;;24.90;22.40;;;;;;;;;;5050695;28;20699;-80
2021/05/01 00:54:55;;;;;;;29.17;26.27;;;;;;;;;;5050670;28;20983;-79
2021/05/01 00:57:40;;;;;;;30.10;26.90;;;;;;;;;;5050907;28;20232;-79
2021/05/01 01:00:39;;;;;;;30.30;27.07;;;;;;;;;;5050219;28;20483;-79
2021/05/01 01:03:24;;;;;;;28.00;25.07;;;;;;;;;;5052773;28;20231;-79
2021/05/01 01:06:10;;;;;;;28.43;23.93;;;;;;;;;;5054443;28;20601;-79
2021/05/01 01:08:54;;;;;;;20.50;18.47;;;;;;;;;;5054756;28;20205;-79
2021/05/01 01:11:39;;;;;;;21.60;18.70;;;;;;;;;;5053884;28;20212;-79
2021/05/01 01:14:24;;;;;;;21.20;18.60;;;;;;;;;;5053977;28;20729;-79
2021/05/01 01:17:08;;;;;;;19.47;17.30;;;;;;;;;;5054147;28;20228;-80
2021/05/01 01:19:53;;;;;;;20.20;17.57;;;;;;;;;;5053489;28;20679;-79
2021/05/01 01:22:39;;;;;;;19.50;17.47;;;;;;;;;;5053995;28;20589;-80
2021/05/01 01:25:23;;;;;;;24.23;21.67;;;;;;;;;;5052840;28;20440;-80
2021/05/01 01:28:08;;;;;;;20.40;17.83;;;;;;;;;;5053806;28;20264;-80
2021/05/01 01:30:52;;;;;;;21.43;17.43;;;;;;;;;;5053996;28;20221;-79
2021/05/01 01:33:37;;;;;;;22.07;17.83;;;;;;;;;;5054370;28;20259;-80
2021/05/01 01:36:21;;;;;;;19.47;17.47;;;;;;;;;;5053508;28;20248;-80
2021/05/01 01:39:09;;;;;;;19.27;16.37;;;;;;;;;;5053966;28;20212;-80
2021/05/01 01:41:54;;;;;;;25.75;23.17;;;;;;;;;;5052720;28;20432;-80
2021/05/01 01:44:38;;;;;;;22.20;19.87;;;;;;;;;;5053495;28;20209;-80
2021/05/01 01:47:23;;;;;;;21.73;19.43;;;;;;;;;;5053135;28;20216;-81
2021/05/01 01:50:10;;;;;;;24.97;20.47;;;;;;;;;;5053048;28;20216;-81
2021/05/01 01:52:55;;;;;;;21.60;19.50;;;;;;;;;;5053583;28;20283;-81
2021/05/01 01:55:41;;;;;;;22.93;20.60;;;;;;;;;;5053273;28;20206;-81
2021/05/01 01:58:26;;;;;;;28.17;21.57;;;;;;;;;;5053685;28;20259;-81
2021/05/01 02:01:11;;;;;;;23.57;20.57;;;;;;;;;;5052872;28;20251;-81
2021/05/01 02:03:55;;;;;;;26.07;21.53;;;;;;;;;;5052948;28;20205;-81
2021/05/01 02:06:40;;;;;;;25.47;22.13;;;;;;;;;;5052982;28;20306;-81
2021/05/01 02:09:24;;;;;;;26.77;21.47;;;;;;;;;;5052359;28;20266;-81
2021/05/01 02:12:10;;;;;;;25.70;22.77;;;;;;;;;;5052884;28;20309;-81
2021/05/01 02:14:54;;;;;;;26.50;22.77;;;;;;;;;;5052563;28;20277;-81
2021/05/01 02:17:39;;;;;;;28.70;23.10;;;;;;;;;;5052775;28;20290;-81
2021/05/01 02:20:25;;;;;;;30.37;23.87;;;;;;;;;;5051968;28;20277;-81
2021/05/01 02:23:09;;;;;;;26.93;24.23;;;;;;;;;;5052822;28;20204;-81
2021/05/01 02:25:54;;;;;;;29.53;25.07;;;;;;;;;;5052463;28;20769;-81
2021/05/01 02:28:39;;;;;;;40.55;36.83;;;;;;;;;;5051548;28;20912;-81
2021/05/01 02:31:24;;;;;;;31.90;28.77;;;;;;;;;;5051996;28;20254;-81
2021/05/01 02:34:08;;;;;;;30.80;27.60;;;;;;;;;;5052597;28;20259;-81
2021/05/01 02:36:53;;;;;;;30.20;27.13;;;;;;;;;;5052535;28;20619;-81
2021/05/01 02:39:38;;;;;;;33.17;28.63;;;;;;;;;;5052102;28;20206;-81
2021/05/01 02:42:22;;;;;;;32.80;28.47;;;;;;;;;;5052366;28;20211;-81
2021/05/01 02:45:09;;;;;;;36.40;30.10;;;;;;;;;;5052609;28;20258;-81
2021/05/01 02:47:53;;;;;;;32.63;29.13;;;;;;;;;;5052381;28;20687;-81
2021/05/01 02:50:38;;;;;;;34.53;29.53;;;;;;;;;;5051940;28;20513;-82
2021/05/01 02:53:23;;;;;;;34.17;30.63;;;;;;;;;;5052070;28;20227;-81
2021/05/01 02:56:07;;;;;;;34.30;30.17;;;;;;;;;;5052003;28;20198;-81
2021/05/01 02:58:52;;;;;;;39.80;31.47;;;;;;;;;;5052117;28;20208;-81
2021/05/01 03:01:37;;;;;;;45.73;32.53;;;;;;;;;;5051526;28;20577;-81
2021/05/01 03:04:21;;;;;;;39.77;30.13;;;;;;;;;;5051875;28;20204;-82
2021/05/01 03:07:06;;;;;;;37.20;30.70;;;;;;;;;;5051803;28;20276;-82
2021/05/01 03:09:50;;;;;;;39.33;31.10;;;;;;;;;;5051623;28;20396;-81
2021/05/01 03:12:35;;;;;;;37.30;29.70;;;;;;;;;;5051753;28;20299;-82
2021/05/01 03:15:20;;;;;;;53.05;45.97;;;;;;;;;;5050714;28;20403;-81
2021/05/01 03:18:05;;;;;;;43.37;33.83;;;;;;;;;;5051728;28;20642;-81
2021/05/01 03:20:50;;;;;;;37.50;29.83;;;;;;;;;;5051049;28;20218;-80
2021/05/01 03:23:34;;;;;;;35.40;29.73;;;;;;;;;;5051792;28;20575;-81
2021/05/01 03:26:20;;;;;;;41.07;30.30;;;;;;;;;;5050558;28;20288;-81
2021/05/01 03:29:05;;;;;;;40.57;30.47;;;;;;;;;;5051569;28;20204;-81
2021/05/01 03:31:49;;;;;;;31.27;27.23;;;;;;;;;;5051699;28;20208;-81
2021/05/01 03:34:34;;;;;;;41.40;29.07;;;;;;;;;;5051678;28;20581;-81
2021/05/01 03:37:19;;;;;;;36.93;29.00;;;;;;;;;;5051548;28;20282;-81
2021/05/01 03:40:03;;;;;;;38.03;28.53;;;;;;;;;;5051163;28;20227;-81
2021/05/01 03:42:48;;;;;;;37.37;27.70;;;;;;;;;;5051418;28;20248;-81
2021/05/01 03:45:33;;;;;;;32.50;27.00;;;;;;;;;;5051070;28;20654;-81
2021/05/01 03:48:17;;;;;;;34.43;26.57;;;;;;;;;;5051159;28;20299;-81
2021/05/01 03:51:04;;;;;;;33.20;26.37;;;;;;;;;;5050945;28;20652;-81
2021/05/01 03:53:48;;;;;;;33.00;25.70;;;;;;;;;;5051363;28;20460;-81
2021/05/01 03:56:33;;;;;;;33.73;25.97;;;;;;;;;;5050859;28;20269;-81
2021/05/01 03:59:18;;;;;;;34.57;27.80;;;;;;;;;;5050379;28;20226;-81
2021/05/01 04:02:02;;;;;;;50.95;42.13;;;;;;;;;;5050773;28;20425;-81
2021/05/01 04:04:47;;;;;;;42.83;30.63;;;;;;;;;;5050730;28;20221;-81
2021/05/01 04:07:32;;;;;;;38.63;29.93;;;;;;;;;;5050802;28;20221;-81
2021/05/01 04:10:17;;;;;;;39.60;29.53;;;;;;;;;;5050242;28;20273;-81
2021/05/01 04:13:02;;;;;;;34.80;27.70;;;;;;;;;;5050808;28;20205;-80
2021/05/01 04:15:46;;;;;;;33.17;26.63;;;;;;;;;;5050865;28;20209;-81
2021/05/01 04:18:30;;;;;;;36.83;28.60;;;;;;;;;;5051014;28;20270;-81
2021/05/01 04:21:15;;;;;;;46.27;27.83;;;;;;;;;;5050319;28;20687;-80
2021/05/01 04:24:01;;;;;;;39.40;28.23;;;;;;;;;;5051010;28;20229;-81
2021/05/01 04:26:45;;;;;;;42.33;29.37;;;;;;;;;;5050543;28;20241;-80
2021/05/01 04:29:29;;;;;;;34.00;27.40;;;;;;;;;;5050567;28;20267;-81
2021/05/01 04:32:14;;;;;;;35.20;26.60;;;;;;;;;;5050796;28;20206;-81
2021/05/01 04:34:58;;;;;;;37.80;28.17;;;;;;;;;;5050385;28;20225;-80
2021/05/01 04:37:43;;;;;;;37.77;29.47;;;;;;;;;;5053956;28;20256;-81
2021/05/01 04:40:28;;;;;;;39.33;29.13;;;;;;;;;;5054362;28;20248;-81
2021/05/01 04:43:13;;;;;;;39.00;30.50;;;;;;;;;;5054860;28;20265;-81
2021/05/01 04:45:58;;;;;;;40.87;29.60;;;;;;;;;;5054367;28;20696;-81
2021/05/01 04:48:43;;;;;;;62.00;47.28;;;;;;;;;;5053645;28;20981;-81
2021/05/01 04:51:27;;;;;;;44.53;35.00;;;;;;;;;;5054162;28;20280;-81
2021/05/01 04:54:12;;;;;;;39.63;32.93;;;;;;;;;;5054559;28;20248;-81
2021/05/01 04:56:57;;;;;;;46.90;34.17;;;;;;;;;;5054303;28;20221;-81
2021/05/01 04:59:43;;;;;;;37.57;32.87;;;;;;;;;;5054011;28;20205;-81
2021/05/01 05:02:27;;;;;;;45.37;32.93;;;;;;;;;;5054517;28;20317;-81
2021/05/01 05:05:13;;;;;;;41.33;32.90;;;;;;;;;;5054310;28;20750;-81
2021/05/01 05:07:59;;;;;;;38.37;31.53;;;;;;;;;;5054154;28;20294;-80
2021/05/01 05:10:44;;;;;;;40.23;32.80;;;;;;;;;;5053860;28;20241;-80
2021/05/01 05:13:29;;;;;;;39.33;32.53;;;;;;;;;;5053927;28;20207;-79
2021/05/01 05:16:14;;;;;;;45.57;32.83;;;;;;;;;;5053889;28;20657;-80
2021/05/01 05:18:58;;;;;;;46.15;41.38;;;;;;;;;;5053523;28;20479;-80
2021/05/01 05:21:43;;;;;;;37.13;33.27;;;;;;;;;;5053522;28;20211;-80
2021/05/01 05:24:27;;;;;;;36.73;32.40;;;;;;;;;;5054021;28;20207;-80
2021/05/01 05:27:11;;;;;;;36.63;31.43;;;;;;;;;;5053804;28;20738;-80
2021/05/01 05:29:57;;;;;;;35.13;31.33;;;;;;;;;;5053304;28;20202;-80
2021/05/01 05:32:42;;;;;;;36.07;32.23;;;;;;;;;;5053764;28;20707;-80
2021/05/01 05:35:27;;;;;;;44.63;40.17;;;;;;;;;;5052132;28;20417;-80
2021/05/01 05:38:11;;;;;;;37.83;33.53;;;;;;;;;;5053552;28;20318;-80
2021/05/01 05:40:55;;;;;;;36.93;32.90;;;;;;;;;;5053095;28;20254;-79
2021/05/01 05:43:40;;;;;;;34.33;30.80;;;;;;;;;;5053651;28;20300;-80
2021/05/01 05:46:26;;;;;;;35.20;31.07;;;;;;;;;;5053305;28;20241;-80
2021/05/01 05:49:10;;;;;;;33.67;30.23;;;;;;;;;;5052729;28;20267;-80
2021/05/01 05:51:55;;;;;;;33.10;29.53;;;;;;;;;;5053424;28;20748;-80
2021/05/01 05:54:39;;;;;;;32.33;28.83;;;;;;;;;;5053488;28;20221;-80
2021/05/01 05:57:24;;;;;;;32.73;29.40;;;;;;;;;;5053150;28;20272;-81
2021/05/01 06:00:08;;;;;;;30.43;27.40;;;;;;;;;;5052907;28;20375;-80
2021/05/01 06:02:58;;;;;;;30.93;27.60;;;;;;;;;;5053281;28;20202;-80
2021/05/01 06:05:46;;;;;;;32.97;29.77;;;;;;;;;;5052338;28;20487;-80
2021/05/01 06:08:32;;;;;;;30.40;27.37;;;;;;;;;;5053230;28;20205;-80
2021/05/01 06:11:18;;;;;;;29.07;26.03;;;;;;;;;;5052671;28;20248;-80
2021/05/01 06:14:03;;;;;;;32.30;27.23;;;;;;;;;;5053177;28;20241;-80
2021/05/01 06:16:47;;;;;;;30.93;27.47;;;;;;;;;;5052824;28;20316;-80
2021/05/01 06:19:33;;;;;;;30.43;27.43;;;;;;;;;;5052504;28;20209;-81
2021/05/01 06:22:17;;;;;;;34.92;31.63;;;;;;;;;;5052144;28;20413;-80
2021/05/01 06:25:03;;;;;;;29.63;26.73;;;;;;;;;;5052886;28;20194;-81
2021/05/01 06:27:50;;;;;;;29.70;26.77;;;;;;;;;;5052879;28;20306;-81
2021/05/01 06:30:39;;;;;;;27.93;25.33;;;;;;;;;;5052403;28;20231;-80
2021/05/01 06:33:25;;;;;;;27.77;24.97;;;;;;;;;;5052597;28;20225;-80
2021/05/01 06:36:11;;;;;;;25.60;23.27;;;;;;;;;;5052795;28;20265;-80
2021/05/01 06:39:00;;;;;;;26.30;23.73;;;;;;;;;;5052676;28;20247;-80
2021/05/01 06:41:53;;;;;;;24.03;21.53;;;;;;;;;;5052459;28;20207;-80
2021/05/01 06:44:40;;;;;;;22.77;20.57;;;;;;;;;;5052655;28;20246;-81
2021/05/01 06:47:26;;;;;;;22.40;20.23;;;;;;;;;;5052418;28;20231;-80
2021/05/01 06:50:11;;;;;;;18.70;16.80;;;;;;;;;;5052109;28;20475;-81
2021/05/01 06:52:57;;;;;;;20.92;18.92;;;;;;;;;;5051784;28;20776;-81
2021/05/01 06:55:42;;;;;;;19.10;17.50;;;;;;;;;;5051970;28;20289;-80
2021/05/01 06:58:27;;;;;;;19.97;17.97;;;;;;;;;;5052399;28;20217;-81
2021/05/01 07:01:12;;;;;;;18.93;17.10;;;;;;;;;;5050636;28;20204;-81
2021/05/01 07:03:57;;;;;;;17.50;16.00;;;;;;;;;;5052269;28;20204;-81
2021/05/01 07:06:42;;;;;;;16.60;14.90;;;;;;;;;;5051672;28;20251;-81
2021/05/01 07:09:28;;;;;;;16.65;14.85;;;;;;;;;;5050561;28;20417;-80
2021/05/01 07:12:12;;;;;;;15.40;13.97;;;;;;;;;;5051750;28;20251;-80
2021/05/01 07:14:58;;;;;;;14.73;13.20;;;;;;;;;;5052017;28;20209;-81
2021/05/01 07:17:43;;;;;;;14.57;13.17;;;;;;;;;;5051667;28;20271;-80
2021/05/01 07:20:27;;;;;;;14.37;13.07;;;;;;;;;;5051196;28;20263;-80
2021/05/01 07:23:12;;;;;;;14.20;12.80;;;;;;;;;;5052018;28;20722;-80
2021/05/01 07:25:57;;;;;;;13.87;12.60;;;;;;;;;;5052551;28;20710;-81
2021/05/01 07:28:44;;;;;;;16.63;12.47;;;;;;;;;;5051338;28;20204;-80
2021/05/01 07:31:30;;;;;;;14.47;13.03;;;;;;;;;;5051086;28;20279;-80
2021/05/01 07:34:20;;;;;;;14.70;12.80;;;;;;;;;;5051525;28;20227;-81
2021/05/01 07:37:06;;;;;;;12.87;11.53;;;;;;;;;;5051354;28;20228;-79
2021/05/01 07:39:51;;;;;;;12.97;11.67;;;;;;;;;;5050968;28;20270;-80
2021/05/01 07:42:38;;;;;;;12.27;10.97;;;;;;;;;;5051258;28;20289;-81
2021/05/01 07:45:22;;;;;;;12.13;9.57;;;;;;;;;;5051226;28;20292;-81
2021/05/01 07:48:09;;;;;;;11.00;9.97;;;;;;;;;;5051358;28;20293;-81
2021/05/01 07:50:54;;;;;;;11.10;9.53;;;;;;;;;;5050809;28;20244;-81
2021/05/01 07:53:39;;;;;;;8.33;7.43;;;;;;;;;;5051483;28;20251;-81
2021/05/01 07:56:23;;;;;;;7.47;6.77;;;;;;;;;;5051342;28;20231;-81
2021/05/01 07:59:10;;;;;;;8.90;7.87;;;;;;;;;;5051335;28;20205;-81
2021/05/01 08:01:54;;;;;;;9.67;7.67;;;;;;;;;;5051027;28;20292;-81
2021/05/01 08:04:39;;;;;;;11.23;6.57;;;;;;;;;;5051194;28;20573;-81
2021/05/01 08:07:23;;;;;;;7.90;6.90;;;;;;;;;;5050712;28;20237;-81
2021/05/01 08:10:09;;;;;;;7.90;7.10;;;;;;;;;;5050454;28;20560;-81
2021/05/01 08:12:53;;;;;;;8.53;6.90;;;;;;;;;;5050526;28;20220;-81
2021/05/01 08:15:39;;;;;;;7.47;6.63;;;;;;;;;;5050763;28;20718;-81
2021/05/01 08:18:26;;;;;;;8.70;7.33;;;;;;;;;;5050999;28;20201;-81
2021/05/01 08:21:11;;;;;;;9.73;6.90;;;;;;;;;;5050220;28;20288;-81
2021/05/01 08:23:56;;;;;;;8.27;7.10;;;;;;;;;;5050916;28;20285;-81
2021/05/01 08:26:40;;;;;;;9.43;6.70;;;;;;;;;;5050549;28;20531;-81
2021/05/01 08:29:25;;;;;;;9.47;7.10;;;;;;;;;;5050392;28;20268;-81
2021/05/01 08:32:10;;;;;;;9.47;6.33;;;;;;;;;;5050741;28;20289;-81
2021/05/01 08:34:55;;;;;;;8.07;5.80;;;;;;;;;;5050631;28;20683;-80
2021/05/01 08:37:39;;;;;;;7.70;6.67;;;;;;;;;;5050322;28;20233;-80
2021/05/01 08:40:25;;;;;;;8.07;6.43;;;;;;;;;;5049996;28;20252;-81
2021/05/01 08:43:12;;;;;;;10.02;7.07;;;;;;;;;;5049816;28;20908;-81
2021/05/01 08:45:58;;;;;;;7.37;6.67;;;;;;;;;;5050550;28;20271;-80
2021/05/01 08:48:44;;;;;;;6.87;5.77;;;;;;;;;;5051054;28;20248;-81
2021/05/01 08:51:28;;;;;;;6.40;5.80;;;;;;;;;;5050457;28;20203;-81
2021/05/01 08:54:14;;;;;;;6.20;5.57;;;;;;;;;;5050532;28;20714;-80
2021/05/01 08:56:59;;;;;;;8.07;5.80;;;;;;;;;;5050329;28;20729;-81
2021/05/01 08:59:44;;;;;;;5.70;5.20;;;;;;;;;;5050379;28;20205;-81
2021/05/01 09:02:29;;;;;;;7.07;5.33;;;;;;;;;;5050613;28;20585;-81
2021/05/01 09:05:15;;;;;;;8.47;5.90;;;;;;;;;;5050360;28;20204;-81
2021/05/01 09:07:59;;;;;;;6.80;5.40;;;;;;;;;;5050038;28;20259;-81
2021/05/01 09:10:46;;;;;;;5.83;5.27;;;;;;;;;;5049948;28;20267;-81
2021/05/01 09:13:30;;;;;;;8.20;5.20;;;;;;;;;;5050328;28;20233;-80
2021/05/01 09:16:16;;;;;;;9.63;5.43;;;;;;;;;;5050175;28;20267;-81
2021/05/01 09:19:00;;;;;;;6.20;4.90;;;;;;;;;;5050768;28;20673;-81
2021/05/01 09:21:45;;;;;;;5.70;4.90;;;;;;;;;;5050075;28;20212;-80
2021/05/01 09:24:30;;;;;;;6.63;5.00;;;;;;;;;;5052844;28;20595;-81
2021/05/01 09:27:16;;;;;;;8.30;5.23;;;;;;;;;;5053560;28;20239;-81
2021/05/01 09:30:11;;;;;;;5.93;5.13;;;;;;;;;;5052667;28;20436;-81
2021/05/01 09:33:20;;;;;;;7.20;4.83;;;;;;;;;;5054332;28;20710;-81
2021/05/01 09:36:06;;;;;;;5.63;4.70;;;;;;;;;;5046374;28;20244;-81
2021/05/01 09:38:52;;;;;;;6.53;5.00;;;;;;;;;;5053705;28;20252;-81
2021/05/01 09:41:38;;;;;;;5.93;4.77;;;;;;;;;;5053138;28;20741;-81
2021/05/01 09:44:23;;;;;;;6.77;4.53;;;;;;;;;;5053780;28;20202;-80
2021/05/01 09:47:11;;;;;;;6.10;4.80;;;;;;;;;;5053490;28;20232;-80
2021/05/01 09:49:56;;;;;;;7.63;5.23;;;;;;;;;;5052907;28;20206;-81
2021/05/01 09:52:41;;;;;;;8.53;4.87;;;;;;;;;;5053300;28;20251;-80
2021/05/01 09:55:46;;;;;;;8.07;5.40;;;;;;;;;;5053447;28;20209;-81
2021/05/01 09:58:31;;;;;;;7.47;5.23;;;;;;;;;;5053520;28;20193;-81
2021/05/01 10:01:17;;;;;;;6.53;4.97;;;;;;;;;;5052878;28;20332;-81
2021/05/01 10:04:12;;;;;;;6.30;4.97;;;;;;;;;;5052290;28;20506;-80
2021/05/01 10:06:57;;;;;;;6.47;4.80;;;;;;;;;;5052882;28;20240;-80
2021/05/01 10:09:43;;;;;;;5.83;5.23;;;;;;;;;;5052626;28;20220;-81
2021/05/01 10:12:33;;;;;;;4.87;4.47;;;;;;;;;;5053241;28;20211;-81
2021/05/01 10:15:19;;;;;;;7.00;4.70;;;;;;;;;;5053061;28;20220;-81
2021/05/01 10:18:11;;;;;;;5.90;5.30;;;;;;;;;;5052712;28;20947;-80
2021/05/01 10:20:56;;;;;;;5.50;5.00;;;;;;;;;;5052441;28;20221;-81
2021/05/01 10:23:45;;;;;;;5.10;4.10;;;;;;;;;;5052782;28;20236;-81
2021/05/01 10:26:47;;;;;;;4.93;4.17;;;;;;;;;;5053105;28;20625;-81
2021/05/01 10:29:35;;;;;;;4.43;4.03;;;;;;;;;;5051981;28;20200;-80
2021/05/01 10:32:30;;;;;;;5.77;4.67;;;;;;;;;;5052755;28;20221;-80
2021/05/01 10:35:15;;;;;;;5.47;4.30;;;;;;;;;;5052743;28;20256;-80
2021/05/01 10:38:00;;;;;;;4.87;4.13;;;;;;;;;;5054918;28;20224;-81
2021/05/01 10:40:49;;;;;;;5.93;4.13;;;;;;;;;;5049075;28;20216;-79
2021/05/01 10:43:36;;;;;;;7.83;6.47;;;;;;;;;;5049530;28;20208;-76
2021/05/01 10:46:22;;;;;;;5.33;4.10;;;;;;;;;;5050433;28;20241;-76
2021/05/01 10:49:08;;;;;;;6.50;3.80;;;;;;;;;;5050438;28;20282;-75
2021/05/01 10:51:54;;;;;;;7.00;5.53;;;;;;;;;;5048864;28;20236;-76
2021/05/01 10:54:38;;;;;;;8.63;7.73;;;;;;;;;;5051175;28;20197;-78
2021/05/01 10:57:23;;;;;;;5.63;4.97;;;;;;;;;;5049471;28;20814;-77
2021/05/01 11:00:08;;;;;;;8.90;7.60;;;;;;;;;;5048321;28;20209;-72
2021/05/01 11:02:58;;;;;;;6.40;5.60;;;;;;;;;;5049333;28;20267;-77
2021/05/01 11:05:44;;;;;;;9.50;8.68;;;;;;;;;;5048432;28;20415;-73
2021/05/01 11:08:40;;;;;;;10.47;8.77;;;;;;;;;;5049513;28;20200;-74
2021/05/01 11:11:28;;;;;;;16.47;14.53;;;;;;;;;;5049706;28;20225;-76
2021/05/01 11:14:20;;;;;;;8.33;6.67;;;;;;;;;;5049945;28;20279;-73
2021/05/01 11:17:10;;;;;;;5.17;4.67;;;;;;;;;;5050547;28;20711;-78
2021/05/01 11:19:58;;;;;;;5.57;4.00;;;;;;;;;;5049518;28;20241;-79
2021/05/01 11:22:44;;;;;;;8.87;6.57;;;;;;;;;;5048097;28;20251;-82
2021/05/01 11:25:30;;;;;;;10.50;8.40;;;;;;;;;;5048715;28;20586;-72
2021/05/01 11:28:17;;;;;;;4.57;4.00;;;;;;;;;;5046871;28;20271;-76
2021/05/01 11:31:01;;;;;;;4.70;4.27;;;;;;;;;;5050588;28;20718;-78
2021/05/01 11:33:46;;;;;;;6.73;6.03;;;;;;;;;;5038635;28;20197;-75
2021/05/01 11:36:31;;;;;;;5.17;4.37;;;;;;;;;;5051523;28;20591;-77
2021/05/01 11:39:17;;;;;;;6.30;4.00;;;;;;;;;;5050711;28;20204;-76
2021/05/01 11:42:02;;;;;;;4.60;3.80;;;;;;;;;;5051219;28;20686;-73
2021/05/01 11:44:48;;;;;;;4.53;3.80;;;;;;;;;;5051168;28;20339;-80
2021/05/01 11:47:32;;;;;;;4.40;4.07;;;;;;;;;;5050268;28;20690;-76
2021/05/01 11:50:17;;;;;;;6.13;4.40;;;;;;;;;;5050801;28;20212;-76
2021/05/01 11:53:15;;;;;;;6.57;4.40;;;;;;;;;;5051227;28;20232;-75
2021/05/01 11:56:04;;;;;;;6.07;4.55;;;;;;;;;;5049426;28;20973;-80
2021/05/01 11:58:49;;;;;;;5.27;3.80;;;;;;;;;;5051693;28;20328;-73
2021/05/01 12:01:36;;;;;;;7.20;4.73;;;;;;;;;;5052086;28;20566;-76
2021/05/01 12:04:21;;;;;;;5.00;4.60;;;;;;;;;;5050671;28;20682;-75
2021/05/01 12:07:05;;;;;;;6.33;5.40;;;;;;;;;;5052674;28;20236;-77
2021/05/01 12:09:51;;;;;;;5.60;4.67;;;;;;;;;;5050371;28;20204;-77
2021/05/01 12:12:39;;;;;;;5.40;4.57;;;;;;;;;;5050833;28;20201;-74
2021/05/01 12:15:30;;;;;;;5.63;4.80;;;;;;;;;;5050622;28;20249;-76
2021/05/01 12:18:14;;;;;;;5.93;4.50;;;;;;;;;;5029551;28;20205;-75
2021/05/01 12:20:59;;;;;;;7.63;5.20;;;;;;;;;;5042140;28;20308;-76
2021/05/01 12:23:44;;;;;;;8.93;5.40;;;;;;;;;;5050145;28;20212;-76
2021/05/01 12:26:38;;;;;;;5.80;5.10;;;;;;;;;;5050417;28;20225;-76
2021/05/01 12:29:28;;;;;;;4.93;4.43;;;;;;;;;;5050624;28;20264;-76
2021/05/01 12:32:24;;;;;;;4.53;4.13;;;;;;;;;;5050218;28;20216;-76
2021/05/01 12:35:09;;;;;;;5.73;5.23;;;;;;;;;;5030652;28;20244;-76
2021/05/01 12:37:55;;;;;;;3.83;3.43;;;;;;;;;;5048856;28;20240;-76
2021/05/01 12:40:40;;;;;;;4.15;3.70;;;;;;;;;;5049479;28;20780;-76
2021/05/01 12:43:39;;;;;;;3.77;3.47;;;;;;;;;;5050688;28;20625;-76
2021/05/01 12:46:51;;;;;;;6.00;4.07;;;;;;;;;;5050316;28;20267;-76
2021/05/01 12:49:37;;;;;;;4.03;3.73;;;;;;;;;;5050129;28;20632;-75
2021/05/01 12:52:22;;;;;;;3.77;3.47;;;;;;;;;;5050645;28;20615;-76
2021/05/01 12:55:07;;;;;;;4.37;3.50;;;;;;;;;;5050405;28;20780;-76
2021/05/01 12:57:51;;;;;;;4.70;4.10;;;;;;;;;;5052184;28;20232;-76
2021/05/01 13:00:39;;;;;;;5.93;4.00;;;;;;;;;;5053738;28;20196;-76
2021/05/01 13:03:24;;;;;;;4.93;3.87;;;;;;;;;;5054443;28;20394;-76
2021/05/01 13:06:09;;;;;;;3.87;3.53;;;;;;;;;;5054150;28;20312;-76
2021/05/01 13:08:53;;;;;;;4.93;3.80;;;;;;;;;;5053689;28;20255;-73
2021/05/01 13:11:38;;;;;;;3.80;3.50;;;;;;;;;;5053836;28;20206;-74
2021/05/01 13:14:23;;;;;;;5.57;3.40;;;;;;;;;;5034098;28;20197;-73
2021/05/01 13:17:07;;;;;;;4.77;3.90;;;;;;;;;;5050211;28;20210;-74
2021/05/01 13:20:09;;;;;;;4.27;3.73;;;;;;;;;;5053408;28;20655;-72
2021/05/01 13:22:55;;;;;;;4.00;3.70;;;;;;;;;;5053504;28;20220;-72
2021/05/01 13:25:43;;;;;;;4.33;3.47;;;;;;;;;;5053005;28;20688;-73
2021/05/01 13:28:27;;;;;;;3.92;3.53;;;;;;;;;;5053020;28;20920;-73
2021/05/01 13:31:12;;;;;;;3.90;3.60;;;;;;;;;;5053184;28;20711;-73
2021/05/01 13:33:57;;;;;;;4.10;3.70;;;;;;;;;;5053974;28;20295;-73
2021/05/01 13:36:42;;;;;;;3.47;3.17;;;;;;;;;;5053208;28;20229;-73
2021/05/01 13:39:29;;;;;;;4.13;3.60;;;;;;;;;;5053535;28;20248;-73
2021/05/01 13:42:14;;;;;;;4.87;3.67;;;;;;;;;;5053945;28;20208;-73
2021/05/01 13:45:00;;;;;;;3.77;3.47;;;;;;;;;;5053303;28;20224;-73
2021/05/01 13:47:47;;;;;;;4.30;3.53;;;;;;;;;;5053223;28;20236;-73
2021/05/01 13:50:32;;;;;;;3.37;3.13;;;;;;;;;;5052361;28;20197;-73
2021/05/01 13:53:21;;;;;;;4.13;3.60;;;;;;;;;;5053383;28;20330;-73
2021/05/01 13:56:06;;;;;;;4.60;3.50;;;;;;;;;;5053399;28;20241;-73
2021/05/01 13:58:51;;;;;;;4.32;3.70;;;;;;;;;;5052945;28;20575;-73
2021/05/01 14:01:45;;;;;;;3.57;3.27;;;;;;;;;;5052853;28;20208;-73
2021/05/01 14:04:30;;;;;;;3.97;3.60;;;;;;;;;;5056056;28;20207;-73
2021/05/01 14:07:15;;;;;;;3.70;3.00;;;;;;;;;;5033619;28;20735;-73
2021/05/01 14:09:59;;;;;;;3.83;3.13;;;;;;;;;;5050557;28;20642;-73
2021/05/01 14:12:45;;;;;;;3.77;3.43;;;;;;;;;;5052639;28;20714;-75
2021/05/01 14:15:30;;;;;;;4.07;3.40;;;;;;;;;;5052310;28;20748;-78
2021/05/01 14:18:15;;;;;;;4.47;3.50;;;;;;;;;;5054574;28;20217;-80
2021/05/01 14:21:01;;;;;;;3.77;3.30;;;;;;;;;;5051373;28;20639;-77
2021/05/01 14:23:46;;;;;;;5.47;3.23;;;;;;;;;;5050089;28;20225;-79
2021/05/01 14:26:31;;;;;;;3.50;3.20;;;;;;;;;;5052407;28;20248;-75
2021/05/01 14:29:16;;;;;;;5.60;3.30;;;;;;;;;;5048796;28;20232;-75
2021/05/01 14:32:09;;;;;;;4.27;3.40;;;;;;;;;;5051467;28;20206;-78
2021/05/01 14:34:54;;;;;;;4.33;3.80;;;;;;;;;;5053900;28;20316;-78
2021/05/01 14:37:39;;;;;;;4.60;3.87;;;;;;;;;;5052413;28;20201;-75
2021/05/01 14:40:23;;;;;;;4.17;3.87;;;;;;;;;;5051247;28;20205;-74
2021/05/01 14:43:07;;;;;;;5.30;4.00;;;;;;;;;;5051556;28;20340;-75
2021/05/01 14:45:53;;;;;;;6.23;4.20;;;;;;;;;;5050809;28;20248;-75
2021/05/01 14:48:39;;;;;;;4.30;3.93;;;;;;;;;;5051938;28;20248;-77
2021/05/01 14:51:28;;;;;;;4.97;4.57;;;;;;;;;;5051315;28;20277;-74
2021/05/01 14:54:14;;;;;;;4.70;4.10;;;;;;;;;;5051211;28;20303;-74
2021/05/01 14:57:00;;;;;;;6.20;5.70;;;;;;;;;;5050521;28;20694;-73
2021/05/01 14:59:45;;;;;;;5.10;4.47;;;;;;;;;;5050436;28;20696;-74
2021/05/01 15:02:32;;;;;;;4.30;4.00;;;;;;;;;;5051487;28;20193;-73
2021/05/01 15:05:17;;;;;;;4.17;3.87;;;;;;;;;;5050923;28;20271;-73
2021/05/01 15:08:01;;;;;;;4.20;3.80;;;;;;;;;;5048448;28;20376;-74
2021/05/01 15:10:46;;;;;;;5.13;3.77;;;;;;;;;;5051574;28;20630;-76
2021/05/01 15:13:30;;;;;;;5.07;3.97;;;;;;;;;;5051551;28;20236;-79
2021/05/01 15:16:15;;;;;;;4.10;3.70;;;;;;;;;;5051523;28;20692;-75
2021/05/01 15:19:13;;;;;;;5.03;4.47;;;;;;;;;;5031450;28;20210;-73
2021/05/01 15:21:58;;;;;;;4.97;4.30;;;;;;;;;;5030259;28;20268;-74
2021/05/01 15:24:42;;;;;;;4.70;4.07;;;;;;;;;;5049729;28;20267;-73
2021/05/01 15:27:27;;;;;;;5.17;4.60;;;;;;;;;;5050646;28;20595;-74
2021/05/01 15:30:13;;;;;;;4.57;3.97;;;;;;;;;;5050714;28;20312;-73
2021/05/01 15:32:58;;;;;;;5.10;3.90;;;;;;;;;;5050878;28;20508;-72
2021/05/01 15:35:44;;;;;;;4.10;3.80;;;;;;;;;;5051407;28;20284;-70
2021/05/01 15:38:29;;;;;;;4.00;3.60;;;;;;;;;;5051850;28;20260;-70
2021/05/01 15:41:13;;;;;;;4.70;3.97;;;;;;;;;;5050917;28;20200;-71
2021/05/01 15:43:58;;;;;;;6.00;4.63;;;;;;;;;;5050860;28;20260;-73
2021/05/01 15:46:42;;;;;;;6.60;6.00;;;;;;;;;;5051165;28;20272;-78
2021/05/01 15:49:27;;;;;;;4.60;4.20;;;;;;;;;;5049319;28;20395;-73
2021/05/01 15:52:12;;;;;;;4.33;4.00;;;;;;;;;;5048891;28;20213;-75
2021/05/01 15:54:57;;;;;;;4.27;3.87;;;;;;;;;;5052081;28;20267;-79
2021/05/01 15:57:42;;;;;;;4.20;3.90;;;;;;;;;;5051388;28;20215;-78
2021/05/01 16:00:28;;;;;;;4.00;3.70;;;;;;;;;;5050064;28;20628;-78
2021/05/01 16:03:13;;;;;;;4.83;3.80;;;;;;;;;;5050840;28;20250;-81
2021/05/01 16:05:58;;;;;;;4.50;4.10;;;;;;;;;;5050978;28;20228;-82
2021/05/01 16:08:43;;;;;;;3.90;3.63;;;;;;;;;;5051579;28;20713;-79
2021/05/01 16:11:28;;;;;;;5.43;4.20;;;;;;;;;;5050221;28;20223;-82
2021/05/01 16:14:12;;;;;;;4.17;3.87;;;;;;;;;;5050747;28;20231;-76
2021/05/01 16:16:57;;;;;;;5.03;3.63;;;;;;;;;;5051106;28;20213;-78
2021/05/01 16:19:42;;;;;;;4.33;3.73;;;;;;;;;;5050299;28;20278;-78
2021/05/01 16:22:26;;;;;;;4.27;3.97;;;;;;;;;;5050501;28;20722;-79